sensor_id;sensor_type;location;lat;lon;timestamp;P1;durP1;ratioP1;P2;durP2;ratioP2
215;SDS011;70668;48.81286795;9.14184224;2024-01-25T00:00:21;24.83;;;4.03;;
215;SDS011;70668;48.81286795;9.14184224;2024-01-25T00:02:50;20.77;;;3.80;;
215;SDS011;70668;48.81286795;9.14184224;2024-01-25T00:05:18;24.77;;;4.17;;
215;SDS011;70668;48.81286795;9.14184224;2024-01-25T00:07:47;27.40;;;5.03;;
215;SDS011;70668;48.81286795;9.14184224;2024-01-25T00:10:19;33.50;;;5.27;;
215;SDS011;70668;48.81286795;9.14184224;2024-01-25T00:12:47;21.43;;;4.50;;
215;SDS011;70668;48.81286795;9.14184224;2024-01-25T00:15:16;22.40;;;4.33;;
215;SDS011;70668;48.81286795;9.14184224;2024-01-25T00:17:45;23.27;;;4.43;;
215;SDS011;70668;48.81286795;9.14184224;2024-01-25T00:20:13;23.10;;;3.70;;
215;SDS011;70668;48.81286795;9.14184224;2024-01-25T00:22:42;20.13;;;3.80;;
215;SDS011;70668;48.81286795;9.14184224;2024-01-25T00:25:10;24.80;;;4.40;;
215;SDS011;70668;48.81286795;9.14184224;2024-01-25T00:27:42;24.90;;;5.03;;
215;SDS011;70668;48.81286795;9.14184224;2024-01-25T00:30:10;18.70;;;4.20;;
215;SDS011;70668;48.81286795;9.14184224;2024-01-25T00:32:39;28.37;;;4.33;;
215;SDS011;70668;48.81286795;9.14184224;2024-01-25T00:35:09;22.73;;;4.40;;
215;SDS011;70668;48.81286795;9.14184224;2024-01-25T00:37:39;21.30;;;3.87;;
215;SDS011;70668;48.81286795;9.14184224;2024-01-25T00:40:08;19.37;;;3.80;;
215;SDS011;70668;48.81286795;9.14184224;2024-01-25T00:42:42;26.23;;;3.90;;
215;SDS011;70668;48.81286795;9.14184224;2024-01-25T00:45:14;21.70;;;4.40;;
215;SDS011;70668;48.81286795;9.14184224;2024-01-25T00:47:43;29.83;;;4.70;;
215;SDS011;70668;48.81286795;9.14184224;2024-01-25T00:50:13;23.90;;;4.20;;
215;SDS011;70668;48.81286795;9.14184224;2024-01-25T00:52:42;21.70;;;4.70;;
215;SDS011;70668;48.81286795;9.14184224;2024-01-25T00:55:12;20.33;;;4.10;;
215;SDS011;70668;48.81286795;9.14184224;2024-01-25T00:57:44;29.20;;;4.67;;
215;SDS011;70668;48.81286795;9.14184224;2024-01-25T01:00:14;27.03;;;4.33;;
215;SDS011;70668;48.81286795;9.14184224;2024-01-25T01:02:43;31.83;;;5.37;;
215;SDS011;70668;48.81286795;9.14184224;2024-01-25T01:05:13;30.07;;;4.40;;
215;SDS011;70668;48.81286795;9.14184224;2024-01-25T01:07:43;29.97;;;4.90;;
215;SDS011;70668;48.81286795;9.14184224;2024-01-25T01:10:12;30.10;;;4.93;;
215;SDS011;70668;48.81286795;9.14184224;2024-01-25T01:12:41;27.67;;;4.30;;
215;SDS011;70668;48.81286795;9.14184224;2024-01-25T01:15:12;27.23;;;4.97;;
215;SDS011;70668;48.81286795;9.14184224;2024-01-25T01:17:41;35.23;;;4.70;;
215;SDS011;70668;48.81286795;9.14184224;2024-01-25T01:20:10;26.20;;;3.77;;
215;SDS011;70668;48.81286795;9.14184224;2024-01-25T01:22:38;31.50;;;4.93;;
215;SDS011;70668;48.81286795;9.14184224;2024-01-25T01:25:07;25.00;;;4.30;;
215;SDS011;70668;48.81286795;9.14184224;2024-01-25T01:27:35;23.97;;;4.20;;
215;SDS011;70668;48.81286795;9.14184224;2024-01-25T01:30:05;23.43;;;3.70;;
215;SDS011;70668;48.81286795;9.14184224;2024-01-25T01:32:37;19.20;;;4.00;;
215;SDS011;70668;48.81286795;9.14184224;2024-01-25T01:35:06;23.90;;;4.70;;
215;SDS011;70668;48.81286795;9.14184224;2024-01-25T01:37:35;21.80;;;3.93;;
215;SDS011;70668;48.81286795;9.14184224;2024-01-25T01:40:04;29.37;;;4.37;;
215;SDS011;70668;48.81286795;9.14184224;2024-01-25T01:42:34;19.80;;;4.27;;
215;SDS011;70668;48.81286795;9.14184224;2024-01-25T01:45:02;28.33;;;4.13;;
215;SDS011;70668;48.81286795;9.14184224;2024-01-25T01:47:31;27.63;;;4.60;;
215;SDS011;70668;48.81286795;9.14184224;2024-01-25T01:50:03;27.43;;;4.10;;
215;SDS011;70668;48.81286795;9.14184224;2024-01-25T01:52:33;23.27;;;4.70;;
215;SDS011;70668;48.81286795;9.14184224;2024-01-25T01:55:02;23.77;;;4.57;;
215;SDS011;70668;48.81286795;9.14184224;2024-01-25T01:57:31;28.37;;;4.13;;
215;SDS011;70668;48.81286795;9.14184224;2024-01-25T02:00:00;24.77;;;4.43;;
215;SDS011;70668;48.81286795;9.14184224;2024-01-25T02:02:37;22.10;;;4.27;;
215;SDS011;70668;48.81286795;9.14184224;2024-01-25T02:05:08;17.70;;;4.00;;
215;SDS011;70668;48.81286795;9.14184224;2024-01-25T02:07:38;21.00;;;4.53;;
215;SDS011;70668;48.81286795;9.14184224;2024-01-25T02:10:08;17.33;;;3.60;;
215;SDS011;70668;48.81286795;9.14184224;2024-01-25T02:12:37;24.33;;;4.33;;
215;SDS011;70668;48.81286795;9.14184224;2024-01-25T02:15:06;26.33;;;4.17;;
215;SDS011;70668;48.81286795;9.14184224;2024-01-25T02:17:35;30.90;;;5.63;;
215;SDS011;70668;48.81286795;9.14184224;2024-01-25T02:20:05;24.20;;;4.97;;
215;SDS011;70668;48.81286795;9.14184224;2024-01-25T02:22:39;23.47;;;4.20;;
215;SDS011;70668;48.81286795;9.14184224;2024-01-25T02:25:08;20.70;;;3.60;;
215;SDS011;70668;48.81286795;9.14184224;2024-01-25T02:27:36;21.00;;;4.27;;
215;SDS011;70668;48.81286795;9.14184224;2024-01-25T02:30:05;30.23;;;5.10;;
215;SDS011;70668;48.81286795;9.14184224;2024-01-25T02:32:34;21.53;;;4.30;;
215;SDS011;70668;48.81286795;9.14184224;2024-01-25T02:35:03;27.00;;;4.10;;
215;SDS011;70668;48.81286795;9.14184224;2024-01-25T02:37:32;31.47;;;3.90;;
215;SDS011;70668;48.81286795;9.14184224;2024-01-25T02:40:04;22.93;;;4.03;;
215;SDS011;70668;48.81286795;9.14184224;2024-01-25T02:42:33;18.60;;;3.47;;
215;SDS011;70668;48.81286795;9.14184224;2024-01-25T02:45:01;20.37;;;3.80;;
215;SDS011;70668;48.81286795;9.14184224;2024-01-25T02:47:30;18.17;;;3.50;;
215;SDS011;70668;48.81286795;9.14184224;2024-01-25T02:49:58;22.77;;;4.50;;
215;SDS011;70668;48.81286795;9.14184224;2024-01-25T02:52:27;19.90;;;4.53;;
215;SDS011;70668;48.81286795;9.14184224;2024-01-25T02:54:55;23.57;;;4.13;;
215;SDS011;70668;48.81286795;9.14184224;2024-01-25T02:57:27;25.07;;;4.00;;
215;SDS011;70668;48.81286795;9.14184224;2024-01-25T02:59:56;22.87;;;3.90;;
215;SDS011;70668;48.81286795;9.14184224;2024-01-25T03:02:25;20.90;;;3.93;;
215;SDS011;70668;48.81286795;9.14184224;2024-01-25T03:04:53;24.00;;;3.87;;
215;SDS011;70668;48.81286795;9.14184224;2024-01-25T03:07:22;19.40;;;3.90;;
215;SDS011;70668;48.81286795;9.14184224;2024-01-25T03:09:50;24.33;;;3.90;;
215;SDS011;70668;48.81286795;9.14184224;2024-01-25T03:12:19;21.00;;;3.80;;
215;SDS011;70668;48.81286795;9.14184224;2024-01-25T03:14:50;28.27;;;4.50;;
215;SDS011;70668;48.81286795;9.14184224;2024-01-25T03:17:18;20.10;;;4.10;;
215;SDS011;70668;48.81286795;9.14184224;2024-01-25T03:19:47;18.27;;;4.90;;
215;SDS011;70668;48.81286795;9.14184224;2024-01-25T03:22:15;33.23;;;4.33;;
215;SDS011;70668;48.81286795;9.14184224;2024-01-25T03:24:44;18.00;;;3.77;;
215;SDS011;70668;48.81286795;9.14184224;2024-01-25T03:27:13;27.43;;;4.37;;
215;SDS011;70668;48.81286795;9.14184224;2024-01-25T03:29:41;19.27;;;4.10;;
215;SDS011;70668;48.81286795;9.14184224;2024-01-25T03:32:12;18.70;;;3.90;;
215;SDS011;70668;48.81286795;9.14184224;2024-01-25T03:34:41;19.40;;;3.97;;
215;SDS011;70668;48.81286795;9.14184224;2024-01-25T03:37:09;22.37;;;4.10;;
215;SDS011;70668;48.81286795;9.14184224;2024-01-25T03:39:38;20.47;;;4.03;;
215;SDS011;70668;48.81286795;9.14184224;2024-01-25T03:42:07;22.63;;;4.30;;
215;SDS011;70668;48.81286795;9.14184224;2024-01-25T03:44:35;23.60;;;4.53;;
215;SDS011;70668;48.81286795;9.14184224;2024-01-25T03:47:04;27.83;;;4.23;;
215;SDS011;70668;48.81286795;9.14184224;2024-01-25T03:49:35;19.47;;;3.80;;
215;SDS011;70668;48.81286795;9.14184224;2024-01-25T03:52:04;20.27;;;3.77;;
215;SDS011;70668;48.81286795;9.14184224;2024-01-25T03:54:33;28.23;;;4.03;;
215;SDS011;70668;48.81286795;9.14184224;2024-01-25T03:57:03;20.60;;;4.03;;
215;SDS011;70668;48.81286795;9.14184224;2024-01-25T03:59:31;22.57;;;4.00;;
215;SDS011;70668;48.81286795;9.14184224;2024-01-25T04:02:00;22.57;;;4.30;;
215;SDS011;70668;48.81286795;9.14184224;2024-01-25T04:04:28;21.77;;;3.90;;
215;SDS011;70668;48.81286795;9.14184224;2024-01-25T04:06:59;17.80;;;4.20;;
215;SDS011;70668;48.81286795;9.14184224;2024-01-25T04:09:28;25.77;;;4.40;;
215;SDS011;70668;48.81286795;9.14184224;2024-01-25T04:11:56;25.83;;;4.20;;
215;SDS011;70668;48.81286795;9.14184224;2024-01-25T04:14:25;28.90;;;5.13;;
215;SDS011;70668;48.81286795;9.14184224;2024-01-25T04:16:53;27.70;;;4.30;;
215;SDS011;70668;48.81286795;9.14184224;2024-01-25T04:19:22;23.07;;;4.47;;
215;SDS011;70668;48.81286795;9.14184224;2024-01-25T04:21:50;23.10;;;4.73;;
215;SDS011;70668;48.81286795;9.14184224;2024-01-25T04:24:21;28.33;;;4.17;;
215;SDS011;70668;48.81286795;9.14184224;2024-01-25T04:26:50;18.57;;;4.10;;
215;SDS011;70668;48.81286795;9.14184224;2024-01-25T04:29:18;22.13;;;5.87;;
215;SDS011;70668;48.81286795;9.14184224;2024-01-25T04:31:47;24.23;;;4.33;;
215;SDS011;70668;48.81286795;9.14184224;2024-01-25T04:34:15;24.53;;;4.80;;
215;SDS011;70668;48.81286795;9.14184224;2024-01-25T04:36:44;20.50;;;4.37;;
215;SDS011;70668;48.81286795;9.14184224;2024-01-25T04:39:13;23.27;;;4.80;;
215;SDS011;70668;48.81286795;9.14184224;2024-01-25T04:41:44;25.30;;;4.27;;
215;SDS011;70668;48.81286795;9.14184224;2024-01-25T04:44:13;21.90;;;4.50;;
215;SDS011;70668;48.81286795;9.14184224;2024-01-25T04:46:41;24.37;;;4.50;;
215;SDS011;70668;48.81286795;9.14184224;2024-01-25T04:49:10;23.40;;;5.00;;
215;SDS011;70668;48.81286795;9.14184224;2024-01-25T04:51:38;25.47;;;4.67;;
215;SDS011;70668;48.81286795;9.14184224;2024-01-25T04:54:07;29.20;;;5.00;;
215;SDS011;70668;48.81286795;9.14184224;2024-01-25T04:56:38;26.20;;;4.30;;
215;SDS011;70668;48.81286795;9.14184224;2024-01-25T04:59:09;30.07;;;4.40;;
215;SDS011;70668;48.81286795;9.14184224;2024-01-25T05:01:37;24.90;;;4.30;;
215;SDS011;70668;48.81286795;9.14184224;2024-01-25T05:04:06;19.63;;;4.23;;
215;SDS011;70668;48.81286795;9.14184224;2024-01-25T05:06:34;21.93;;;4.17;;
215;SDS011;70668;48.81286795;9.14184224;2024-01-25T05:09:03;24.10;;;4.40;;
215;SDS011;70668;48.81286795;9.14184224;2024-01-25T05:11:33;24.77;;;4.47;;
215;SDS011;70668;48.81286795;9.14184224;2024-01-25T05:14:05;21.60;;;4.50;;
215;SDS011;70668;48.81286795;9.14184224;2024-01-25T05:16:36;19.63;;;3.87;;
215;SDS011;70668;48.81286795;9.14184224;2024-01-25T05:19:04;26.93;;;4.50;;
215;SDS011;70668;48.81286795;9.14184224;2024-01-25T05:21:33;19.60;;;4.17;;
215;SDS011;70668;48.81286795;9.14184224;2024-01-25T05:24:02;21.63;;;3.97;;
215;SDS011;70668;48.81286795;9.14184224;2024-01-25T05:26:30;22.90;;;4.87;;
215;SDS011;70668;48.81286795;9.14184224;2024-01-25T05:28:59;20.97;;;4.07;;
215;SDS011;70668;48.81286795;9.14184224;2024-01-25T05:31:27;19.47;;;4.40;;
215;SDS011;70668;48.81286795;9.14184224;2024-01-25T05:33:59;22.57;;;4.83;;
215;SDS011;70668;48.81286795;9.14184224;2024-01-25T05:36:27;22.83;;;4.30;;
215;SDS011;70668;48.81286795;9.14184224;2024-01-25T05:38:56;29.17;;;4.20;;
215;SDS011;70668;48.81286795;9.14184224;2024-01-25T05:41:24;25.03;;;4.80;;
215;SDS011;70668;48.81286795;9.14184224;2024-01-25T05:43:53;27.30;;;4.80;;
215;SDS011;70668;48.81286795;9.14184224;2024-01-25T05:46:21;24.60;;;4.23;;
215;SDS011;70668;48.81286795;9.14184224;2024-01-25T05:48:49;22.10;;;4.90;;
215;SDS011;70668;48.81286795;9.14184224;2024-01-25T05:51:20;22.03;;;4.90;;
215;SDS011;70668;48.81286795;9.14184224;2024-01-25T05:53:49;21.43;;;4.63;;
215;SDS011;70668;48.81286795;9.14184224;2024-01-25T05:56:17;21.67;;;4.70;;
215;SDS011;70668;48.81286795;9.14184224;2024-01-25T05:58:46;24.47;;;5.10;;
215;SDS011;70668;48.81286795;9.14184224;2024-01-25T06:01:14;19.93;;;4.00;;
215;SDS011;70668;48.81286795;9.14184224;2024-01-25T06:03:43;21.20;;;4.30;;
215;SDS011;70668;48.81286795;9.14184224;2024-01-25T06:06:11;26.17;;;5.00;;
215;SDS011;70668;48.81286795;9.14184224;2024-01-25T06:08:42;33.40;;;5.20;;
215;SDS011;70668;48.81286795;9.14184224;2024-01-25T06:11:11;23.80;;;4.90;;
215;SDS011;70668;48.81286795;9.14184224;2024-01-25T06:13:39;25.47;;;5.13;;
215;SDS011;70668;48.81286795;9.14184224;2024-01-25T06:16:08;24.17;;;4.93;;
215;SDS011;70668;48.81286795;9.14184224;2024-01-25T06:18:36;21.37;;;4.60;;
215;SDS011;70668;48.81286795;9.14184224;2024-01-25T06:21:05;29.30;;;5.10;;
215;SDS011;70668;48.81286795;9.14184224;2024-01-25T06:23:33;30.57;;;5.00;;
215;SDS011;70668;48.81286795;9.14184224;2024-01-25T06:26:04;29.47;;;5.13;;
215;SDS011;70668;48.81286795;9.14184224;2024-01-25T06:28:33;30.17;;;5.00;;
215;SDS011;70668;48.81286795;9.14184224;2024-01-25T06:31:01;19.87;;;4.20;;
215;SDS011;70668;48.81286795;9.14184224;2024-01-25T06:33:30;29.07;;;4.77;;
215;SDS011;70668;48.81286795;9.14184224;2024-01-25T06:35:59;22.77;;;4.40;;
215;SDS011;70668;48.81286795;9.14184224;2024-01-25T06:38:28;25.50;;;5.10;;
215;SDS011;70668;48.81286795;9.14184224;2024-01-25T06:40:56;28.20;;;5.10;;
215;SDS011;70668;48.81286795;9.14184224;2024-01-25T06:43:27;29.77;;;5.47;;
215;SDS011;70668;48.81286795;9.14184224;2024-01-25T06:45:56;33.90;;;5.40;;
215;SDS011;70668;48.81286795;9.14184224;2024-01-25T06:48:24;27.70;;;5.50;;
215;SDS011;70668;48.81286795;9.14184224;2024-01-25T06:50:53;30.83;;;5.90;;
215;SDS011;70668;48.81286795;9.14184224;2024-01-25T06:53:21;21.40;;;5.20;;
215;SDS011;70668;48.81286795;9.14184224;2024-01-25T06:55:50;28.33;;;5.77;;
215;SDS011;70668;48.81286795;9.14184224;2024-01-25T06:58:18;27.87;;;4.73;;
215;SDS011;70668;48.81286795;9.14184224;2024-01-25T07:00:49;30.37;;;5.20;;
215;SDS011;70668;48.81286795;9.14184224;2024-01-25T07:03:18;26.63;;;5.30;;
215;SDS011;70668;48.81286795;9.14184224;2024-01-25T07:05:47;19.47;;;5.13;;
215;SDS011;70668;48.81286795;9.14184224;2024-01-25T07:08:15;25.40;;;4.83;;
215;SDS011;70668;48.81286795;9.14184224;2024-01-25T07:10:44;26.37;;;4.77;;
215;SDS011;70668;48.81286795;9.14184224;2024-01-25T07:13:13;25.83;;;5.03;;
215;SDS011;70668;48.81286795;9.14184224;2024-01-25T07:15:41;20.13;;;4.50;;
215;SDS011;70668;48.81286795;9.14184224;2024-01-25T07:18:12;28.50;;;5.40;;
215;SDS011;70668;48.81286795;9.14184224;2024-01-25T07:20:41;24.90;;;4.80;;
215;SDS011;70668;48.81286795;9.14184224;2024-01-25T07:23:10;26.73;;;5.10;;
215;SDS011;70668;48.81286795;9.14184224;2024-01-25T07:25:38;26.90;;;5.60;;
215;SDS011;70668;48.81286795;9.14184224;2024-01-25T07:28:06;26.33;;;5.97;;
215;SDS011;70668;48.81286795;9.14184224;2024-01-25T07:30:35;27.80;;;5.50;;
215;SDS011;70668;48.81286795;9.14184224;2024-01-25T07:33:04;24.37;;;5.07;;
215;SDS011;70668;48.81286795;9.14184224;2024-01-25T07:35:35;24.70;;;4.77;;
215;SDS011;70668;48.81286795;9.14184224;2024-01-25T07:38:10;28.40;;;4.80;;
215;SDS011;70668;48.81286795;9.14184224;2024-01-25T07:40:39;22.20;;;4.30;;
215;SDS011;70668;48.81286795;9.14184224;2024-01-25T07:43:07;29.13;;;5.67;;
215;SDS011;70668;48.81286795;9.14184224;2024-01-25T07:45:36;23.37;;;4.80;;
215;SDS011;70668;48.81286795;9.14184224;2024-01-25T07:48:05;32.13;;;5.60;;
215;SDS011;70668;48.81286795;9.14184224;2024-01-25T07:50:36;27.83;;;4.80;;
215;SDS011;70668;48.81286795;9.14184224;2024-01-25T07:53:05;35.73;;;5.30;;
215;SDS011;70668;48.81286795;9.14184224;2024-01-25T07:55:33;27.83;;;5.17;;
215;SDS011;70668;48.81286795;9.14184224;2024-01-25T07:58:02;37.27;;;5.80;;
215;SDS011;70668;48.81286795;9.14184224;2024-01-25T08:00:31;23.73;;;4.43;;
215;SDS011;70668;48.81286795;9.14184224;2024-01-25T08:02:59;23.87;;;4.70;;
215;SDS011;70668;48.81286795;9.14184224;2024-01-25T08:05:28;28.70;;;5.20;;
215;SDS011;70668;48.81286795;9.14184224;2024-01-25T08:07:59;32.37;;;5.57;;
215;SDS011;70668;48.81286795;9.14184224;2024-01-25T08:10:27;24.83;;;5.27;;
215;SDS011;70668;48.81286795;9.14184224;2024-01-25T08:12:56;26.90;;;5.50;;
215;SDS011;70668;48.81286795;9.14184224;2024-01-25T08:15:24;28.00;;;6.00;;
215;SDS011;70668;48.81286795;9.14184224;2024-01-25T08:17:53;22.50;;;4.70;;
215;SDS011;70668;48.81286795;9.14184224;2024-01-25T08:20:22;35.37;;;5.90;;
215;SDS011;70668;48.81286795;9.14184224;2024-01-25T08:22:50;26.13;;;4.97;;
215;SDS011;70668;48.81286795;9.14184224;2024-01-25T08:25:21;32.60;;;5.43;;
215;SDS011;70668;48.81286795;9.14184224;2024-01-25T08:27:50;24.20;;;5.50;;
215;SDS011;70668;48.81286795;9.14184224;2024-01-25T08:30:18;25.07;;;5.43;;
215;SDS011;70668;48.81286795;9.14184224;2024-01-25T08:32:47;27.67;;;5.50;;
215;SDS011;70668;48.81286795;9.14184224;2024-01-25T08:35:17;28.57;;;6.00;;
215;SDS011;70668;48.81286795;9.14184224;2024-01-25T08:37:45;27.07;;;5.20;;
215;SDS011;70668;48.81286795;9.14184224;2024-01-25T08:40:14;21.30;;;5.30;;
215;SDS011;70668;48.81286795;9.14184224;2024-01-25T08:42:45;27.67;;;6.13;;
215;SDS011;70668;48.81286795;9.14184224;2024-01-25T08:45:32;28.43;;;5.47;;
215;SDS011;70668;48.81286795;9.14184224;2024-01-25T08:48:02;26.57;;;5.23;;
215;SDS011;70668;48.81286795;9.14184224;2024-01-25T08:50:31;29.60;;;5.27;;
215;SDS011;70668;48.81286795;9.14184224;2024-01-25T08:52:59;21.50;;;4.80;;
215;SDS011;70668;48.81286795;9.14184224;2024-01-25T08:55:28;22.20;;;4.43;;
215;SDS011;70668;48.81286795;9.14184224;2024-01-25T08:57:59;25.42;;;5.32;;
215;SDS011;70668;48.81286795;9.14184224;2024-01-25T09:00:28;28.20;;;5.00;;
215;SDS011;70668;48.81286795;9.14184224;2024-01-25T09:02:56;23.90;;;4.87;;
215;SDS011;70668;48.81286795;9.14184224;2024-01-25T09:05:25;25.37;;;4.50;;
215;SDS011;70668;48.81286795;9.14184224;2024-01-25T09:07:54;30.70;;;5.00;;
215;SDS011;70668;48.81286795;9.14184224;2024-01-25T09:10:22;29.30;;;5.07;;
215;SDS011;70668;48.81286795;9.14184224;2024-01-25T09:12:51;30.00;;;4.90;;
215;SDS011;70668;48.81286795;9.14184224;2024-01-25T09:15:22;25.13;;;5.10;;
215;SDS011;70668;48.81286795;9.14184224;2024-01-25T09:17:50;28.00;;;5.03;;
215;SDS011;70668;48.81286795;9.14184224;2024-01-25T09:20:19;23.40;;;4.10;;
215;SDS011;70668;48.81286795;9.14184224;2024-01-25T09:22:47;26.47;;;5.03;;
215;SDS011;70668;48.81286795;9.14184224;2024-01-25T09:25:16;27.13;;;5.00;;
215;SDS011;70668;48.81286795;9.14184224;2024-01-25T09:27:45;19.50;;;4.00;;
215;SDS011;70668;48.81286795;9.14184224;2024-01-25T09:30:14;24.40;;;4.60;;
215;SDS011;70668;48.81286795;9.14184224;2024-01-25T09:32:46;22.07;;;4.00;;
215;SDS011;70668;48.81286795;9.14184224;2024-01-25T09:35:14;22.80;;;4.43;;
215;SDS011;70668;48.81286795;9.14184224;2024-01-25T09:37:43;25.07;;;4.53;;
215;SDS011;70668;48.81286795;9.14184224;2024-01-25T09:40:11;22.30;;;4.67;;
215;SDS011;70668;48.81286795;9.14184224;2024-01-25T09:42:40;21.30;;;4.17;;
215;SDS011;70668;48.81286795;9.14184224;2024-01-25T09:45:09;30.50;;;5.10;;
215;SDS011;70668;48.81286795;9.14184224;2024-01-25T09:47:46;25.00;;;5.10;;
215;SDS011;70668;48.81286795;9.14184224;2024-01-25T09:50:16;25.90;;;4.53;;
215;SDS011;70668;48.81286795;9.14184224;2024-01-25T09:52:44;28.90;;;4.60;;
215;SDS011;70668;48.81286795;9.14184224;2024-01-25T09:55:15;26.77;;;5.40;;
215;SDS011;70668;48.81286795;9.14184224;2024-01-25T09:57:47;23.57;;;4.73;;
215;SDS011;70668;48.81286795;9.14184224;2024-01-25T10:00:21;27.67;;;4.23;;
215;SDS011;70668;48.81286795;9.14184224;2024-01-25T10:02:52;24.60;;;4.20;;
215;SDS011;70668;48.81286795;9.14184224;2024-01-25T10:05:21;20.93;;;4.50;;
215;SDS011;70668;48.81286795;9.14184224;2024-01-25T10:07:49;23.13;;;3.90;;
215;SDS011;70668;48.81286795;9.14184224;2024-01-25T10:10:18;20.80;;;4.20;;
215;SDS011;70668;48.81286795;9.14184224;2024-01-25T10:12:46;23.13;;;4.23;;
215;SDS011;70668;48.81286795;9.14184224;2024-01-25T10:15:15;31.77;;;4.97;;
215;SDS011;70668;48.81286795;9.14184224;2024-01-25T10:17:43;19.27;;;3.93;;
215;SDS011;70668;48.81286795;9.14184224;2024-01-25T10:20:16;22.70;;;3.80;;
215;SDS011;70668;48.81286795;9.14184224;2024-01-25T10:22:46;30.13;;;4.70;;
215;SDS011;70668;48.81286795;9.14184224;2024-01-25T10:25:14;18.67;;;4.30;;
215;SDS011;70668;48.81286795;9.14184224;2024-01-25T10:27:43;24.40;;;4.13;;
215;SDS011;70668;48.81286795;9.14184224;2024-01-25T10:30:12;25.50;;;4.17;;
215;SDS011;70668;48.81286795;9.14184224;2024-01-25T10:32:41;34.90;;;4.60;;
215;SDS011;70668;48.81286795;9.14184224;2024-01-25T10:35:11;28.73;;;4.63;;
215;SDS011;70668;48.81286795;9.14184224;2024-01-25T10:37:42;24.07;;;4.43;;
215;SDS011;70668;48.81286795;9.14184224;2024-01-25T10:40:12;18.93;;;3.60;;
215;SDS011;70668;48.81286795;9.14184224;2024-01-25T10:42:42;20.27;;;3.93;;
215;SDS011;70668;48.81286795;9.14184224;2024-01-25T10:45:11;20.07;;;3.97;;
215;SDS011;70668;48.81286795;9.14184224;2024-01-25T10:47:40;31.63;;;4.13;;
215;SDS011;70668;48.81286795;9.14184224;2024-01-25T10:50:10;19.87;;;4.30;;
215;SDS011;70668;48.81286795;9.14184224;2024-01-25T10:52:43;23.77;;;4.40;;
215;SDS011;70668;48.81286795;9.14184224;2024-01-25T10:55:12;22.90;;;4.33;;
215;SDS011;70668;48.81286795;9.14184224;2024-01-25T10:57:43;23.77;;;4.53;;
215;SDS011;70668;48.81286795;9.14184224;2024-01-25T11:00:13;26.83;;;4.50;;
215;SDS011;70668;48.81286795;9.14184224;2024-01-25T11:02:44;17.53;;;3.60;;
215;SDS011;70668;48.81286795;9.14184224;2024-01-25T11:05:15;21.30;;;3.87;;
215;SDS011;70668;48.81286795;9.14184224;2024-01-25T11:07:48;25.33;;;4.43;;
215;SDS011;70668;48.81286795;9.14184224;2024-01-25T11:10:16;17.50;;;3.57;;
215;SDS011;70668;48.81286795;9.14184224;2024-01-25T11:12:49;19.17;;;4.17;;
215;SDS011;70668;48.81286795;9.14184224;2024-01-25T11:15:19;16.97;;;3.80;;
215;SDS011;70668;48.81286795;9.14184224;2024-01-25T11:17:55;16.00;;;4.10;;
215;SDS011;70668;48.81286795;9.14184224;2024-01-25T11:20:25;20.10;;;3.87;;
215;SDS011;70668;48.81286795;9.14184224;2024-01-25T11:22:58;16.37;;;3.63;;
215;SDS011;70668;48.81286795;9.14184224;2024-01-25T11:25:27;16.17;;;3.53;;
215;SDS011;70668;48.81286795;9.14184224;2024-01-25T11:27:56;20.30;;;4.33;;
215;SDS011;70668;48.81286795;9.14184224;2024-01-25T11:30:26;15.03;;;3.27;;
215;SDS011;70668;48.81286795;9.14184224;2024-01-25T11:32:54;19.77;;;3.93;;
215;SDS011;70668;48.81286795;9.14184224;2024-01-25T11:35:23;15.53;;;3.50;;
215;SDS011;70668;48.81286795;9.14184224;2024-01-25T11:37:52;14.00;;;3.33;;
215;SDS011;70668;48.81286795;9.14184224;2024-01-25T11:40:24;14.30;;;3.43;;
215;SDS011;70668;48.81286795;9.14184224;2024-01-25T11:42:54;13.60;;;3.30;;
215;SDS011;70668;48.81286795;9.14184224;2024-01-25T11:45:23;16.07;;;3.40;;
215;SDS011;70668;48.81286795;9.14184224;2024-01-25T11:47:51;16.90;;;3.30;;
215;SDS011;70668;48.81286795;9.14184224;2024-01-25T11:50:20;16.20;;;3.70;;
215;SDS011;70668;48.81286795;9.14184224;2024-01-25T11:52:49;16.80;;;3.67;;
215;SDS011;70668;48.81286795;9.14184224;2024-01-25T11:55:18;16.83;;;3.53;;
215;SDS011;70668;48.81286795;9.14184224;2024-01-25T11:57:49;17.43;;;3.20;;
215;SDS011;70668;48.81286795;9.14184224;2024-01-25T12:00:18;14.57;;;3.63;;
215;SDS011;70668;48.81286795;9.14184224;2024-01-25T12:02:48;13.53;;;3.47;;
215;SDS011;70668;48.81286795;9.14184224;2024-01-25T12:05:16;19.23;;;3.73;;
215;SDS011;70668;48.81286795;9.14184224;2024-01-25T12:07:45;13.80;;;3.13;;
215;SDS011;70668;48.81286795;9.14184224;2024-01-25T12:10:15;16.10;;;2.90;;
215;SDS011;70668;48.81286795;9.14184224;2024-01-25T12:12:44;19.57;;;3.67;;
215;SDS011;70668;48.81286795;9.14184224;2024-01-25T12:15:15;12.93;;;3.30;;
215;SDS011;70668;48.81286795;9.14184224;2024-01-25T12:17:44;13.30;;;3.30;;
215;SDS011;70668;48.81286795;9.14184224;2024-01-25T12:20:13;11.07;;;3.00;;
215;SDS011;70668;48.81286795;9.14184224;2024-01-25T12:22:42;16.50;;;3.10;;
215;SDS011;70668;48.81286795;9.14184224;2024-01-25T12:25:10;12.67;;;2.93;;
215;SDS011;70668;48.81286795;9.14184224;2024-01-25T12:27:40;13.60;;;3.50;;
215;SDS011;70668;48.81286795;9.14184224;2024-01-25T12:30:12;16.50;;;3.80;;
215;SDS011;70668;48.81286795;9.14184224;2024-01-25T12:32:43;16.97;;;3.97;;
215;SDS011;70668;48.81286795;9.14184224;2024-01-25T12:35:11;14.10;;;3.37;;
215;SDS011;70668;48.81286795;9.14184224;2024-01-25T12:37:40;19.00;;;3.50;;
215;SDS011;70668;48.81286795;9.14184224;2024-01-25T12:40:09;15.80;;;3.93;;
215;SDS011;70668;48.81286795;9.14184224;2024-01-25T12:42:38;15.27;;;3.13;;
215;SDS011;70668;48.81286795;9.14184224;2024-01-25T12:45:06;24.10;;;4.00;;
215;SDS011;70668;48.81286795;9.14184224;2024-01-25T12:47:35;14.57;;;3.17;;
215;SDS011;70668;48.81286795;9.14184224;2024-01-25T12:50:07;15.30;;;3.60;;
215;SDS011;70668;48.81286795;9.14184224;2024-01-25T12:52:36;18.37;;;4.00;;
215;SDS011;70668;48.81286795;9.14184224;2024-01-25T12:55:05;16.87;;;3.30;;
215;SDS011;70668;48.81286795;9.14184224;2024-01-25T12:57:34;20.80;;;4.07;;
215;SDS011;70668;48.81286795;9.14184224;2024-01-25T13:00:03;12.97;;;3.40;;
215;SDS011;70668;48.81286795;9.14184224;2024-01-25T13:02:32;19.77;;;3.67;;
215;SDS011;70668;48.81286795;9.14184224;2024-01-25T13:05:01;15.53;;;3.37;;
215;SDS011;70668;48.81286795;9.14184224;2024-01-25T13:07:32;12.20;;;3.07;;
215;SDS011;70668;48.81286795;9.14184224;2024-01-25T13:10:00;20.03;;;3.93;;